Time;durP1;ratioP1;P1;durP2;ratioP2;P2;SDS_P1;SDS_P2;PMS_P1;PMS_P2;Temp;Humidity;BMP_temperature;BMP_pressure;BME280_temperature;BME280_humidity;BME280_pressure;Samples;Min_cycle;Max_cycle;Signal;HPM_P1;HPM_P2
2022/03/11 00:00:05;;;;;;;19.30;9.25;;;11.10;67.20;;;;;;5054956;28;20478;-74
2022/03/11 00:02:33;;;;;;;15.45;9.00;;;11.10;67.20;;;;;;5053759;28;20029;-74
2022/03/11 00:04:58;;;;;;;16.63;9.43;;;11.10;67.10;;;;;;5053549;28;20104;-74
2022/03/11 00:07:24;;;;;;;19.38;9.20;;;11.10;67.10;;;;;;5053224;28;20426;-74
2022/03/11 00:09:50;;;;;;;16.67;9.52;;;11.10;67.20;;;;;;5053548;28;20545;-75
2022/03/11 00:12:15;;;;;;;16.80;9.30;;;11.10;67.20;;;;;;5054506;28;20028;-74
2022/03/11 00:14:41;;;;;;;15.25;9.32;;;11.10;67.20;;;;;;5054864;28;20051;-75
2022/03/11 00:17:07;;;;;;;16.90;9.70;;;11.10;67.10;;;;;;5053072;28;20406;-74
2022/03/11 00:19:33;;;;;;;21.00;9.65;;;11.10;67.10;;;;;;5053154;28;20033;-75
2022/03/11 00:21:59;;;;;;;18.48;9.88;;;11.10;67.10;;;;;;5052959;28;20040;-74
2022/03/11 00:24:24;;;;;;;21.13;9.80;;;11.10;67.10;;;;;;5053315;28;20064;-74
2022/03/11 00:26:50;;;;;;;19.15;10.60;;;11.10;67.10;;;;;;5054159;28;20066;-74
2022/03/11 00:29:15;;;;;;;16.40;10.13;;;11.10;67.10;;;;;;5052820;28;20060;-73
2022/03/11 00:31:41;;;;;;;17.33;9.75;;;11.10;67.00;;;;;;5054574;28;20049;-75
2022/03/11 00:34:07;;;;;;;14.98;9.50;;;11.10;67.00;;;;;;5054583;28;20419;-74
2022/03/11 00:36:32;;;;;;;19.60;10.15;;;11.10;66.90;;;;;;5054632;28;20037;-74
2022/03/11 00:38:58;;;;;;;19.88;10.13;;;11.10;66.90;;;;;;5053558;28;20025;-75
2022/03/11 00:41:23;;;;;;;19.27;10.02;;;11.10;66.90;;;;;;5052966;28;20020;-74
2022/03/11 00:43:49;;;;;;;19.45;9.52;;;11.10;67.00;;;;;;5053965;28;20037;-74
2022/03/11 00:46:14;;;;;;;19.02;10.27;;;11.10;67.00;;;;;;5054056;28;20036;-75
2022/03/11 00:48:40;;;;;;;17.42;9.98;;;11.10;67.00;;;;;;5052473;28;20025;-75
2022/03/11 00:51:05;;;;;;;18.30;10.10;;;11.10;67.00;;;;;;5053852;28;20025;-73
2022/03/11 00:53:31;;;;;;;16.65;10.23;;;11.10;67.50;;;;;;5052963;28;20562;-74
2022/03/11 00:55:57;;;;;;;21.20;10.93;;;11.10;66.90;;;;;;5054027;28;20029;-75
2022/03/11 00:58:22;;;;;;;16.05;10.77;;;11.10;66.90;;;;;;5053520;28;20600;-74
2022/03/11 01:00:48;;;;;;;16.50;10.00;;;11.10;67.10;;;;;;5053581;28;20033;-74
2022/03/11 01:03:13;;;;;;;15.35;10.18;;;11.10;67.10;;;;;;5052893;28;20017;-74
2022/03/11 01:05:39;;;;;;;15.50;10.07;;;11.10;67.10;;;;;;5052896;28;20087;-74
2022/03/11 01:08:05;;;;;;;17.65;10.20;;;11.10;67.20;;;;;;5052077;28;20024;-74
2022/03/11 01:10:31;;;;;;;18.20;10.50;;;11.10;67.30;;;;;;5053730;28;20044;-75
2022/03/11 01:12:56;;;;;;;18.05;10.68;;;11.10;67.30;;;;;;5052232;28;20048;-74
2022/03/11 01:15:22;;;;;;;17.98;10.18;;;11.10;67.40;;;;;;5053744;28;20021;-75
2022/03/11 01:17:47;;;;;;;14.98;10.05;;;11.10;67.90;;;;;;5051993;28;20076;-75
2022/03/11 01:20:13;;;;;;;14.02;9.65;;;11.10;67.40;;;;;;5052260;28;20056;-74
2022/03/11 01:22:39;;;;;;;16.25;9.98;;;11.10;67.50;;;;;;5051984;28;20028;-74
2022/03/11 01:25:06;;;;;;;30.25;11.77;;;11.00;67.30;;;;;;5052165;28;20086;-75
2022/03/11 01:27:32;;;;;;;23.40;11.13;;;11.00;67.40;;;;;;5051730;28;20025;-73
2022/03/11 01:29:57;;;;;;;22.45;11.35;;;11.10;67.40;;;;;;5052198;28;20017;-74
2022/03/11 01:32:23;;;;;;;29.15;11.38;;;11.00;67.40;;;;;;5053117;28;20025;-74
2022/03/11 01:34:49;;;;;;;18.95;10.73;;;11.10;67.50;;;;;;5052134;28;20150;-74
2022/03/11 01:37:14;;;;;;;17.42;10.48;;;11.10;67.40;;;;;;5053236;28;20025;-74
2022/03/11 01:39:40;;;;;;;21.13;10.85;;;11.00;67.40;;;;;;5052768;28;20086;-75
2022/03/11 01:42:06;;;;;;;17.88;11.20;;;11.00;67.40;;;;;;5052133;28;20031;-75
2022/03/11 01:44:31;;;;;;;14.98;10.45;;;11.00;67.40;;;;;;5053044;28;20128;-74
2022/03/11 01:46:57;;;;;;;20.60;10.90;;;11.00;67.40;;;;;;5051658;28;20124;-75
2022/03/11 01:49:23;;;;;;;16.73;11.13;;;11.00;67.40;;;;;;5051114;28;20494;-75
2022/03/11 01:51:49;;;;;;;16.85;11.25;;;11.00;67.40;;;;;;5051970;28;20525;-74
2022/03/11 01:54:15;;;;;;;15.57;10.32;;;11.00;67.30;;;;;;5051796;28;20070;-74
2022/03/11 01:56:41;;;;;;;18.05;11.10;;;11.00;67.30;;;;;;5052722;28;20039;-74
2022/03/11 01:59:08;;;;;;;16.48;11.20;;;11.00;67.30;;;;;;5052019;28;20028;-74
2022/03/11 02:01:33;;;;;;;15.63;11.05;;;11.00;67.20;;;;;;5052715;28;20040;-74
2022/03/11 02:03:59;;;;;;;16.15;11.15;;;11.00;67.20;;;;;;5052059;28;20043;-75
2022/03/11 02:06:28;;;;;;;16.60;11.57;;;11.10;67.30;;;;;;5051464;28;20064;-74
2022/03/11 02:08:55;;;;;;;15.77;10.90;;;11.00;67.30;;;;;;5050876;28;20025;-74
2022/03/11 02:11:21;;;;;;;15.70;10.68;;;11.00;67.30;;;;;;5052863;28;20084;-73
2022/03/11 02:13:52;;;;;;;17.02;10.95;;;11.00;67.30;;;;;;5052165;28;20050;-75
2022/03/11 02:16:19;;;;;;;17.73;11.68;;;11.00;67.30;;;;;;5051259;28;20032;-75
2022/03/11 02:18:46;;;;;;;16.15;11.52;;;11.00;67.30;;;;;;5051082;28;20021;-74
2022/03/11 02:21:12;;;;;;;16.40;11.40;;;11.00;67.30;;;;;;5052131;28;20094;-74
2022/03/11 02:23:52;;;;;;;18.00;11.45;;;11.00;67.40;;;;;;5051911;28;20064;-74
2022/03/11 02:26:19;;;;;;;16.20;11.18;;;11.00;67.40;;;;;;5050720;28;20044;-74
2022/03/11 02:28:46;;;;;;;16.75;11.23;;;11.00;67.40;;;;;;5051754;28;20025;-75
2022/03/11 02:31:12;;;;;;;17.98;12.18;;;11.00;67.30;;;;;;5050882;28;20048;-74
2022/03/11 02:33:39;;;;;;;16.55;11.77;;;11.00;67.40;;;;;;5052387;28;20118;-74
2022/03/11 02:36:05;;;;;;;16.77;12.20;;;11.00;67.40;;;;;;5050734;28;20508;-74
2022/03/11 02:38:31;;;;;;;18.08;11.98;;;11.00;67.40;;;;;;5050609;28;20420;-75
2022/03/11 02:40:57;;;;;;;17.02;11.45;;;11.00;67.50;;;;;;5051880;28;20116;-75
2022/03/11 02:43:23;;;;;;;16.00;11.95;;;11.00;67.40;;;;;;5050734;28;20025;-74
2022/03/11 02:45:49;;;;;;;18.50;11.90;;;11.00;67.50;;;;;;5051789;28;20494;-74
2022/03/11 02:48:15;;;;;;;18.15;11.77;;;11.00;67.50;;;;;;5050190;28;20029;-75
2022/03/11 02:50:40;;;;;;;17.15;11.20;;;11.00;67.50;;;;;;5048225;28;20029;-75
2022/03/11 02:53:06;;;;;;;25.27;12.05;;;11.00;67.50;;;;;;5031994;28;20028;-74
2022/03/11 02:55:32;;;;;;;19.05;11.27;;;11.00;67.60;;;;;;5064604;28;20059;-75
2022/03/11 02:57:57;;;;;;;17.55;11.65;;;11.00;67.60;;;;;;5071033;28;20426;-74
2022/03/11 03:00:23;;;;;;;15.63;11.52;;;11.00;67.50;;;;;;5069895;28;20050;-74
2022/03/11 03:02:48;;;;;;;17.27;12.32;;;11.00;67.60;;;;;;5053460;28;20029;-74
2022/03/11 03:05:15;;;;;;;26.17;13.13;;;11.00;67.40;;;;;;5064856;28;20135;-74
2022/03/11 03:07:41;;;;;;;16.88;11.55;;;11.00;67.40;;;;;;5050277;28;20107;-73
2022/03/11 03:10:08;;;;;;;21.63;12.38;;;11.00;67.40;;;;;;5050594;28;20547;-74
2022/03/11 03:12:33;;;;;;;34.25;12.45;;;11.00;67.40;;;;;;5052050;28;20025;-75
2022/03/11 03:14:59;;;;;;;21.00;12.48;;;11.00;67.60;;;;;;5050389;28;20151;-75
2022/03/11 03:17:24;;;;;;;18.42;11.82;;;11.00;67.40;;;;;;5050463;28;20715;-74
2022/03/11 03:19:50;;;;;;;19.38;11.82;;;11.00;67.40;;;;;;5051492;28;20024;-75
2022/03/11 03:22:16;;;;;;;17.88;12.60;;;11.00;67.30;;;;;;5050501;28;20103;-76
2022/03/11 03:24:42;;;;;;;16.80;11.70;;;11.00;67.30;;;;;;5051982;28;20025;-76
2022/03/11 03:27:08;;;;;;;18.42;12.35;;;11.00;67.10;;;;;;5051588;28;20021;-75
2022/03/11 03:29:34;;;;;;;17.80;11.80;;;11.00;67.00;;;;;;5050117;28;20061;-75
2022/03/11 03:32:00;;;;;;;17.25;12.57;;;11.00;67.10;;;;;;5049880;28;20041;-76
2022/03/11 03:34:30;;;;;;;20.33;12.70;;;11.00;67.10;;;;;;5050032;28;20059;-74
2022/03/11 03:36:56;;;;;;;18.23;12.73;;;10.90;67.00;;;;;;5051707;28;20504;-75
2022/03/11 03:39:22;;;;;;;18.27;12.32;;;11.00;67.10;;;;;;5051585;28;20057;-75
2022/03/11 03:41:48;;;;;;;16.48;12.55;;;11.00;67.10;;;;;;5051472;28;20056;-75
2022/03/11 03:44:13;;;;;;;18.77;12.25;;;11.00;67.30;;;;;;5046917;28;20056;-75
2022/03/11 03:46:39;;;;;;;16.05;11.60;;;11.00;67.30;;;;;;5049675;28;20021;-75
2022/03/11 03:49:04;;;;;;;17.30;12.52;;;11.00;67.30;;;;;;5051054;28;20040;-75
2022/03/11 03:51:31;;;;;;;18.15;12.65;;;10.90;67.20;;;;;;5050811;28;20020;-76
2022/03/11 03:53:57;;;;;;;19.38;12.63;;;11.00;67.30;;;;;;5051671;28;20040;-75
2022/03/11 03:56:22;;;;;;;17.00;11.68;;;11.00;67.20;;;;;;5050447;28;20021;-75
2022/03/11 03:58:48;;;;;;;18.95;12.50;;;11.00;67.10;;;;;;5049561;28;20032;-76
2022/03/11 04:01:14;;;;;;;14.93;11.43;;;10.90;67.10;;;;;;5049814;28;20512;-75
2022/03/11 04:03:39;;;;;;;16.95;12.25;;;11.00;67.10;;;;;;5051325;28;20393;-75
2022/03/11 04:06:05;;;;;;;15.43;11.93;;;11.00;67.10;;;;;;5049716;28;20631;-75
2022/03/11 04:08:32;;;;;;;19.23;12.50;;;11.00;67.20;;;;;;5049676;28;20067;-75
2022/03/11 04:10:57;;;;;;;16.40;12.15;;;11.00;67.10;;;;;;5049854;28;20494;-75
2022/03/11 04:13:23;;;;;;;17.20;13.15;;;10.90;67.00;;;;;;5049978;28;20131;-74
2022/03/11 04:15:48;;;;;;;17.17;12.70;;;11.00;67.10;;;;;;5051118;28;20533;-75
2022/03/11 04:18:14;;;;;;;20.60;13.63;;;10.90;67.10;;;;;;5049119;28;20053;-75
2022/03/11 04:20:40;;;;;;;19.73;13.43;;;11.00;67.30;;;;;;5051144;28;20048;-74
2022/03/11 04:23:06;;;;;;;17.67;13.18;;;10.90;67.10;;;;;;5051309;28;20028;-75
2022/03/11 04:25:32;;;;;;;16.95;12.90;;;10.90;67.10;;;;;;5050411;28;20021;-75
2022/03/11 04:27:58;;;;;;;17.38;12.98;;;11.00;67.10;;;;;;5052973;28;20482;-75
2022/03/11 04:30:23;;;;;;;19.02;13.02;;;11.00;67.20;;;;;;5054287;28;20029;-74
2022/03/11 04:32:49;;;;;;;19.92;12.82;;;11.00;67.20;;;;;;5054712;28;20021;-75
2022/03/11 04:35:14;;;;;;;19.63;12.43;;;11.00;67.10;;;;;;5053664;28;20021;-75
2022/03/11 04:37:40;;;;;;;19.30;13.05;;;10.90;67.10;;;;;;5052722;28;20116;-75
2022/03/11 04:40:06;;;;;;;20.50;13.25;;;10.90;67.10;;;;;;5053163;28;20056;-75
2022/03/11 04:42:32;;;;;;;19.63;13.45;;;10.90;67.00;;;;;;5053509;28;20457;-75
2022/03/11 04:44:58;;;;;;;18.15;13.25;;;10.90;67.00;;;;;;5053372;28;20057;-75
2022/03/11 04:47:23;;;;;;;18.77;13.35;;;10.90;67.00;;;;;;5054118;28;20033;-73
2022/03/11 04:49:49;;;;;;;20.65;13.68;;;10.90;66.90;;;;;;5053970;28;20044;-75
2022/03/11 04:52:14;;;;;;;18.85;13.93;;;10.90;66.90;;;;;;5053128;28;20017;-75
2022/03/11 04:54:40;;;;;;;20.40;13.20;;;10.90;66.80;;;;;;5054169;28;20497;-75
2022/03/11 04:57:06;;;;;;;18.92;13.50;;;10.90;66.80;;;;;;5052817;28;20155;-74
2022/03/11 04:59:31;;;;;;;16.38;12.50;;;10.90;67.20;;;;;;5053563;28;20025;-74
2022/03/11 05:01:57;;;;;;;18.02;13.07;;;10.90;66.70;;;;;;5054073;28;20029;-75
2022/03/11 05:04:22;;;;;;;18.67;13.38;;;10.90;66.60;;;;;;5052719;28;20118;-75
2022/03/11 05:06:48;;;;;;;20.58;12.82;;;10.90;66.70;;;;;;5052518;28;20029;-76
2022/03/11 05:09:13;;;;;;;17.55;12.93;;;10.90;66.60;;;;;;5052456;28;20033;-75
2022/03/11 05:11:39;;;;;;;18.77;13.18;;;10.90;66.60;;;;;;5052701;28;20116;-75
2022/03/11 05:14:05;;;;;;;18.17;13.40;;;10.90;66.50;;;;;;5053288;28;20078;-75
2022/03/11 05:16:30;;;;;;;21.55;14.02;;;10.90;66.60;;;;;;5052258;28;20032;-75
2022/03/11 05:18:56;;;;;;;20.00;13.95;;;10.90;66.60;;;;;;5052013;28;20518;-75
2022/03/11 05:21:21;;;;;;;18.65;13.93;;;10.90;66.50;;;;;;5053542;28;20488;-75
2022/03/11 05:23:47;;;;;;;17.38;13.60;;;10.90;66.50;;;;;;5052347;28;20028;-75
2022/03/11 05:26:25;;;;;;;18.75;13.32;;;10.90;66.50;;;;;;5053431;28;20067;-74
2022/03/11 05:29:00;;;;;;;18.27;13.65;;;10.90;66.50;;;;;;5051485;28;20486;-75
2022/03/11 05:31:27;;;;;;;17.75;13.75;;;10.90;66.50;;;;;;5052889;28;20044;-75
2022/03/11 05:33:54;;;;;;;18.65;13.80;;;10.90;66.70;;;;;;5053089;28;20013;-74
2022/03/11 05:36:20;;;;;;;18.00;13.32;;;10.90;66.60;;;;;;5041926;28;20021;-75
2022/03/11 05:38:45;;;;;;;18.90;13.43;;;10.90;66.60;;;;;;5040975;28;20083;-75
2022/03/11 05:41:11;;;;;;;18.10;13.73;;;10.90;66.70;;;;;;5046299;28;20025;-75
2022/03/11 05:43:36;;;;;;;19.50;13.23;;;10.80;66.70;;;;;;5039144;28;20033;-75
2022/03/11 05:46:03;;;;;;;19.60;13.57;;;10.90;66.70;;;;;;5033450;28;20057;-75
2022/03/11 05:48:29;;;;;;;17.45;13.43;;;10.90;66.60;;;;;;5033255;28;20021;-76
2022/03/11 05:50:55;;;;;;;18.73;13.85;;;10.80;66.50;;;;;;5032243;28;20071;-74
2022/03/11 05:53:20;;;;;;;16.63;13.13;;;10.80;66.50;;;;;;5048455;28;20017;-75
2022/03/11 05:55:46;;;;;;;20.38;14.23;;;10.90;66.60;;;;;;5046906;28;20478;-75
2022/03/11 05:58:12;;;;;;;17.73;13.25;;;10.90;66.50;;;;;;5047997;28;20035;-75
2022/03/11 06:00:38;;;;;;;19.42;14.13;;;10.80;66.30;;;;;;5053226;28;20098;-75
2022/03/11 06:03:04;;;;;;;20.70;13.48;;;10.90;66.30;;;;;;5037701;28;20026;-74
2022/03/11 06:05:29;;;;;;;19.40;14.00;;;10.90;66.40;;;;;;5047452;28;20067;-75
2022/03/11 06:07:54;;;;;;;18.98;13.43;;;10.90;66.40;;;;;;5032807;28;20466;-75
2022/03/11 06:10:20;;;;;;;18.70;13.85;;;10.90;66.30;;;;;;5049131;28;20025;-75
2022/03/11 06:12:46;;;;;;;20.63;14.82;;;10.90;66.30;;;;;;5051673;28;20070;-75
2022/03/11 06:15:12;;;;;;;17.33;13.23;;;10.90;66.20;;;;;;5047641;28;20025;-76
2022/03/11 06:17:38;;;;;;;18.77;13.98;;;10.90;66.10;;;;;;5051581;28;20059;-75
2022/03/11 06:20:05;;;;;;;18.23;13.75;;;10.90;66.10;;;;;;5040393;28;20532;-76
2022/03/11 06:22:31;;;;;;;18.90;13.63;;;10.90;66.00;;;;;;5041483;28;20056;-80
2022/03/11 06:24:58;;;;;;;18.58;13.80;;;10.90;65.90;;;;;;5037372;28;20024;-75
2022/03/11 06:27:25;;;;;;;17.70;13.65;;;10.90;65.80;;;;;;5051351;28;20113;-75
2022/03/11 06:29:51;;;;;;;18.23;13.57;;;10.90;65.80;;;;;;5052273;28;20017;-76
2022/03/11 06:32:16;;;;;;;18.35;14.00;;;10.90;65.70;;;;;;5041606;28;20029;-75
2022/03/11 06:34:42;;;;;;;19.92;13.98;;;11.00;65.60;;;;;;5047484;28;20028;-75
2022/03/11 06:37:07;;;;;;;20.42;13.95;;;11.00;65.50;;;;;;5046734;28;20379;-75
2022/03/11 06:39:33;;;;;;;19.30;14.25;;;10.90;65.20;;;;;;5039447;28;20025;-76
2022/03/11 06:41:59;;;;;;;17.48;13.45;;;11.00;65.20;;;;;;5043585;28;20025;-76
2022/03/11 06:44:24;;;;;;;19.02;14.10;;;11.00;65.00;;;;;;5042246;28;20112;-75
2022/03/11 06:46:50;;;;;;;32.88;14.60;;;11.00;65.20;;;;;;5036839;28;20036;-76
2022/03/11 06:49:15;;;;;;;28.48;14.07;;;11.00;65.10;;;;;;5041182;28;20514;-73
2022/03/11 06:51:41;;;;;;;28.75;15.23;;;11.00;64.20;;;;;;5039062;28;20367;-76
2022/03/11 06:54:07;;;;;;;20.35;14.60;;;11.00;63.40;;;;;;5043420;28;20026;-75
2022/03/11 06:56:36;;;;;;;22.42;14.70;;;11.00;63.60;;;;;;5046481;28;20021;-76
2022/03/11 06:59:04;;;;;;;22.95;14.57;;;11.10;63.80;;;;;;5050869;28;20035;-75
2022/03/11 07:01:29;;;;;;;24.00;13.70;;;11.10;63.60;;;;;;5046595;28;20028;-76
2022/03/11 07:03:55;;;;;;;23.30;14.63;;;11.10;62.40;;;;;;5042472;28;20514;-75
2022/03/11 07:06:21;;;;;;;24.60;14.15;;;11.10;62.00;;;;;;5047492;28;20087;-76
2022/03/11 07:08:46;;;;;;;27.38;14.80;;;11.10;62.50;;;;;;5042857;28;20284;-76
2022/03/11 07:11:12;;;;;;;37.83;15.60;;;11.20;63.10;;;;;;5029199;28;20025;-76
2022/03/11 07:13:37;;;;;;;27.75;14.57;;;11.20;63.50;;;;;;5047377;28;20029;-76
2022/03/11 07:16:04;;;;;;;24.83;14.18;;;11.20;63.80;;;;;;5045452;28;20404;-75
2022/03/11 07:18:30;;;;;;;22.23;13.73;;;11.30;64.00;;;;;;5043025;28;20025;-76
2022/03/11 07:20:55;;;;;;;24.48;13.65;;;11.30;64.20;;;;;;5031317;28;20104;-76
2022/03/11 07:23:21;;;;;;;24.95;14.02;;;11.30;64.00;;;;;;5026805;28;20133;-75
2022/03/11 07:25:47;;;;;;;21.55;13.55;;;11.40;64.10;;;;;;5033666;28;20032;-76
2022/03/11 07:28:13;;;;;;;20.85;13.50;;;11.40;63.70;;;;;;5037188;28;20028;-76
2022/03/11 07:30:38;;;;;;;20.48;13.25;;;11.40;64.10;;;;;;5030965;28;20021;-77
2022/03/11 07:33:06;;;;;;;20.42;13.15;;;11.40;63.60;;;;;;5036629;28;20116;-75
2022/03/11 07:35:31;;;;;;;20.42;13.32;;;11.50;64.00;;;;;;5049372;28;20017;-76
2022/03/11 07:37:57;;;;;;;18.10;13.00;;;11.50;63.60;;;;;;5049776;28;20032;-75
2022/03/11 07:40:23;;;;;;;18.30;13.48;;;11.50;63.60;;;;;;5049299;28;20224;-77
2022/03/11 07:42:48;;;;;;;18.20;13.45;;;11.60;62.70;;;;;;5049814;28;20056;-76
2022/03/11 07:45:14;;;;;;;19.40;13.75;;;11.70;62.80;;;;;;5048996;28;20029;-76
2022/03/11 07:47:41;;;;;;;19.58;13.50;;;11.70;63.60;;;;;;5049386;28;20033;-75
2022/03/11 07:50:09;;;;;;;18.83;13.65;;;11.80;63.70;;;;;;5046895;28;20025;-76
2022/03/11 07:52:35;;;;;;;22.73;13.52;;;11.90;63.60;;;;;;5046316;28;20017;-77
2022/03/11 07:55:01;;;;;;;25.67;14.93;;;11.90;63.20;;;;;;5043804;28;20083;-75
2022/03/11 07:57:26;;;;;;;29.65;15.48;;;11.90;63.10;;;;;;5046179;28;20060;-75
2022/03/11 07:59:52;;;;;;;28.20;14.50;;;12.00;62.30;;;;;;5029885;28;20030;-75
2022/03/11 08:02:17;;;;;;;25.10;14.93;;;12.00;62.20;;;;;;5030303;28;20038;-75
2022/03/11 08:04:43;;;;;;;22.30;14.85;;;12.00;62.60;;;;;;5044225;28;20028;-75
2022/03/11 08:07:11;;;;;;;25.65;15.13;;;12.10;63.10;;;;;;5051031;28;20033;-75
2022/03/11 08:09:38;;;;;;;20.30;13.85;;;12.10;63.20;;;;;;5040737;28;20485;-75
2022/03/11 08:12:04;;;;;;;20.67;14.38;;;12.10;63.20;;;;;;5044185;28;20021;-74
2022/03/11 08:14:31;;;;;;;25.33;15.02;;;12.10;63.10;;;;;;5049933;28;20044;-75
2022/03/11 08:16:56;;;;;;;20.95;14.88;;;12.20;63.10;;;;;;5050861;28;20093;-75
2022/03/11 08:19:23;;;;;;;27.02;15.45;;;12.20;63.10;;;;;;5049099;28;20025;-75
2022/03/11 08:21:50;;;;;;;24.73;15.02;;;12.10;63.00;;;;;;5046550;28;20038;-76
2022/03/11 08:24:15;;;;;;;25.25;15.02;;;12.30;63.10;;;;;;5048758;28;20036;-75
2022/03/11 08:26:41;;;;;;;23.55;14.88;;;12.30;63.00;;;;;;5050631;28;20390;-75
2022/03/11 08:29:06;;;;;;;26.20;14.95;;;12.30;63.10;;;;;;5049650;28;20052;-76
2022/03/11 08:31:32;;;;;;;26.27;14.25;;;12.30;62.90;;;;;;5050751;28;20017;-75
2022/03/11 08:33:58;;;;;;;22.77;14.38;;;12.30;62.90;;;;;;5049849;28;20381;-74
2022/03/11 08:36:23;;;;;;;27.33;14.63;;;12.40;62.90;;;;;;5048116;28;20111;-75
2022/03/11 08:38:49;;;;;;;25.63;15.35;;;12.40;62.80;;;;;;5034982;28;20098;-75
2022/03/11 08:41:16;;;;;;;21.63;14.32;;;12.40;62.60;;;;;;5049680;28;20035;-75
2022/03/11 08:43:43;;;;;;;23.52;14.82;;;12.50;62.20;;;;;;5043927;28;20025;-75
2022/03/11 08:46:09;;;;;;;23.50;14.32;;;12.50;62.40;;;;;;5047381;28;20037;-76
2022/03/11 08:48:36;;;;;;;25.25;14.15;;;12.50;62.70;;;;;;5029505;28;20140;-76
2022/03/11 08:51:02;;;;;;;23.52;14.63;;;12.50;62.70;;;;;;5029019;28;20021;-74
2022/03/11 08:53:28;;;;;;;23.33;14.55;;;12.50;62.70;;;;;;5039994;28;20540;-76
2022/03/11 08:55:53;;;;;;;25.50;15.40;;;12.60;62.00;;;;;;5041537;28;20033;-75
2022/03/11 08:58:19;;;;;;;21.77;14.65;;;12.60;62.60;;;;;;5039245;28;20024;-76
2022/03/11 09:00:45;;;;;;;20.58;14.90;;;12.60;62.60;;;;;;5045654;28;20051;-75
2022/03/11 09:03:10;;;;;;;20.40;13.82;;;12.60;62.70;;;;;;5049738;28;20029;-76
2022/03/11 09:05:39;;;;;;;23.90;14.32;;;12.60;62.70;;;;;;5048614;28;20063;-75
2022/03/11 09:08:07;;;;;;;21.50;14.38;;;12.60;62.80;;;;;;5043380;28;20046;-75
2022/03/11 09:10:33;;;;;;;24.65;14.13;;;12.60;62.90;;;;;;5047812;28;20021;-75
2022/03/11 09:12:58;;;;;;;61.42;16.45;;;12.60;62.70;;;;;;5046708;28;20029;-76
2022/03/11 09:15:24;;;;;;;43.22;15.38;;;12.60;62.20;;;;;;5045340;28;20108;-76
2022/03/11 09:17:50;;;;;;;37.25;14.40;;;12.50;61.80;;;;;;5047384;28;20031;-75
2022/03/11 09:20:16;;;;;;;37.60;14.07;;;12.50;61.60;;;;;;5048819;28;20033;-76
2022/03/11 09:22:41;;;;;;;36.90;13.85;;;12.40;61.70;;;;;;5048129;28;20502;-75
2022/03/11 09:25:08;;;;;;;26.98;13.70;;;12.50;61.90;;;;;;5048412;28;20097;-76
2022/03/11 09:27:34;;;;;;;26.33;13.65;;;12.40;61.90;;;;;;5047850;28;20032;-76
2022/03/11 09:30:00;;;;;;;29.75;13.30;;;12.40;61.90;;;;;;5048040;28;20028;-75
2022/03/11 09:32:25;;;;;;;24.83;13.40;;;12.40;62.10;;;;;;5048375;28;20040;-75
2022/03/11 09:34:52;;;;;;;28.75;13.48;;;12.40;62.10;;;;;;5047759;28;20047;-75
2022/03/11 09:37:17;;;;;;;23.92;13.18;;;12.50;62.20;;;;;;5048012;28;20029;-76
2022/03/11 09:39:43;;;;;;;25.98;12.23;;;12.40;62.20;;;;;;5047751;28;20090;-75
2022/03/11 09:42:09;;;;;;;23.63;13.07;;;12.50;62.30;;;;;;5048313;28;20025;-76
2022/03/11 09:44:35;;;;;;;19.35;12.13;;;12.50;62.30;;;;;;5047830;28;20075;-76
2022/03/11 09:47:00;;;;;;;26.98;13.00;;;12.40;62.20;;;;;;5049175;28;20091;-77
2022/03/11 09:49:26;;;;;;;22.30;12.35;;;12.50;62.10;;;;;;5047424;28;20025;-75
2022/03/11 09:51:52;;;;;;;21.60;12.15;;;12.50;62.10;;;;;;5048068;28;20025;-75
2022/03/11 09:54:17;;;;;;;19.13;11.65;;;12.50;62.10;;;;;;5047856;28;20029;-76
2022/03/11 09:56:44;;;;;;;21.50;12.43;;;12.50;62.00;;;;;;5048026;28;20102;-76
2022/03/11 09:59:11;;;;;;;21.50;12.35;;;12.50;62.00;;;;;;5047503;28;20132;-77
2022/03/11 10:01:40;;;;;;;26.17;12.93;;;12.60;62.10;;;;;;5048117;28;20053;-76
2022/03/11 10:04:07;;;;;;;21.52;11.88;;;12.60;62.20;;;;;;5047625;28;20051;-76
2022/03/11 10:06:47;;;;;;;22.30;11.73;;;12.50;62.20;;;;;;5047698;28;20067;-77
2022/03/11 10:09:19;;;;;;;23.77;11.57;;;12.60;62.10;;;;;;5046534;28;20028;-75
2022/03/11 10:11:55;;;;;;;;;;;12.60;62.10;;;;;;5049149;28;20025;-76
2022/03/11 10:14:33;;;;;;;29.15;12.00;;;12.60;62.00;;;;;;5048324;28;19909;-75
2022/03/11 10:17:00;;;;;;;22.92;11.75;;;12.60;61.90;;;;;;5047721;28;20477;-74
2022/03/11 10:19:26;;;;;;;21.70;11.15;;;12.60;62.00;;;;;;5048322;28;20035;-77
2022/03/11 10:21:55;;;;;;;22.65;11.10;;;12.60;61.90;;;;;;5046730;28;20417;-75
2022/03/11 10:24:21;;;;;;;22.08;10.85;;;12.60;62.00;;;;;;5047375;28;20546;-75
2022/03/11 10:26:52;;;;;;;20.23;11.10;;;12.60;62.00;;;;;;5048052;28;20052;-76
2022/03/11 10:29:20;;;;;;;20.73;10.98;;;12.70;62.30;;;;;;5048322;28;20029;-76
2022/03/11 10:31:49;;;;;;;21.30;10.68;;;12.60;62.70;;;;;;5047271;28;20041;-76
2022/03/11 10:34:14;;;;;;;17.40;10.25;;;12.70;62.30;;;;;;5047983;28;20021;-76
2022/03/11 10:36:50;;;;;;;18.95;10.40;;;12.60;62.30;;;;;;5048555;28;20017;-75
2022/03/11 10:39:22;;;;;;;21.05;10.27;;;12.70;62.30;;;;;;5047795;28;20029;-76
2022/03/11 10:41:50;;;;;;;15.05;9.32;;;12.70;62.30;;;;;;5047600;28;20031;-75
2022/03/11 10:44:25;;;;;;;17.10;9.55;;;12.70;62.30;;;;;;5047886;28;20080;-76
2022/03/11 10:46:52;;;;;;;17.08;10.10;;;12.70;62.20;;;;;;5048410;28;20108;-76
2022/03/11 10:49:35;;;;;;;20.20;9.73;;;12.70;62.30;;;;;;5045978;28;20055;-76
2022/03/11 10:52:01;;;;;;;19.55;10.10;;;12.70;62.30;;;;;;5047150;28;20025;-76
2022/03/11 10:54:29;;;;;;;18.58;10.15;;;12.70;62.30;;;;;;5046175;28;20021;-76
2022/03/11 10:56:56;;;;;;;22.27;9.73;;;12.80;62.30;;;;;;5047831;28;20129;-76
2022/03/11 10:59:21;;;;;;;18.10;9.63;;;12.80;62.30;;;;;;5046592;28;20036;-76
2022/03/11 11:01:50;;;;;;;16.35;9.23;;;12.70;62.10;;;;;;5047388;28;20037;-75
2022/03/11 11:04:17;;;;;;;16.63;9.93;;;12.80;62.10;;;;;;5046756;28;20036;-76
2022/03/11 11:06:44;;;;;;;15.13;9.10;;;12.80;62.20;;;;;;5046849;28;20036;-76
2022/03/11 11:09:11;;;;;;;16.27;9.15;;;12.80;62.10;;;;;;5047791;28;20029;-75
2022/03/11 11:11:36;;;;;;;14.50;8.95;;;12.80;62.10;;;;;;5047693;28;20033;-76
2022/03/11 11:14:08;;;;;;;13.77;9.10;;;12.80;62.10;;;;;;5048118;28;20066;-76
2022/03/11 11:16:40;;;;;;;14.60;8.73;;;12.80;61.40;;;;;;5041424;28;20033;-77
2022/03/11 11:19:27;;;;;;;13.55;8.63;;;12.80;61.40;;;;;;5047070;28;20037;-76
2022/03/11 11:21:53;;;;;;;16.80;8.90;;;12.90;61.50;;;;;;5041147;28;20074;-77
2022/03/11 11:24:22;;;;;;;14.88;8.70;;;12.90;61.60;;;;;;5046687;28;20025;-76
2022/03/11 11:26:54;;;;;;;14.30;9.07;;;12.90;61.70;;;;;;5047044;28;20428;-74
2022/03/11 11:29:23;;;;;;;13.32;8.52;;;12.90;61.50;;;;;;5044314;28;20206;-76
2022/03/11 11:31:50;;;;;;;16.45;9.38;;;13.00;61.40;;;;;;5046921;28;20081;-76
2022/03/11 11:34:33;;;;;;;15.00;8.90;;;13.00;61.30;;;;;;5046675;28;20021;-76
2022/03/11 11:37:00;;;;;;;13.52;8.43;;;13.00;61.10;;;;;;5052118;28;20029;-76
2022/03/11 11:39:35;;;;;;;13.23;8.35;;;13.00;61.10;;;;;;5049612;28;20032;-77
2022/03/11 11:42:06;;;;;;;13.00;8.23;;;13.00;61.10;;;;;;5051601;28;20051;-75
2022/03/11 11:44:35;;;;;;;14.27;7.85;;;13.00;61.10;;;;;;5051550;28;20037;-76
2022/03/11 11:47:16;;;;;;;13.98;8.70;;;13.10;61.00;;;;;;5067050;28;20029;-76
2022/03/11 11:49:43;;;;;;;13.60;7.95;;;13.10;61.00;;;;;;5051240;28;20053;-76
2022/03/11 11:52:12;;;;;;;14.73;7.95;;;13.00;60.90;;;;;;5052141;28;20026;-77
2022/03/11 11:54:39;;;;;;;14.35;7.45;;;13.10;60.90;;;;;;5049992;28;20489;-76
2022/03/11 11:57:06;;;;;;;13.90;7.55;;;13.00;61.00;;;;;;5067121;28;20512;-76
2022/03/11 11:59:37;;;;;;;12.27;7.57;;;13.00;61.00;;;;;;5050419;28;20044;-76
2022/03/11 12:02:24;;;;;;;16.75;7.97;;;13.00;61.00;;;;;;5051014;28;20032;-76
2022/03/11 12:04:50;;;;;;;13.65;7.55;;;13.00;61.00;;;;;;5048909;28;20045;-76
2022/03/11 12:07:17;;;;;;;12.05;7.03;;;13.10;61.00;;;;;;5044793;28;20060;-76
2022/03/11 12:10:01;;;;;;;12.27;7.18;;;13.00;60.90;;;;;;5039083;28;20104;-76
2022/03/11 12:12:32;;;;;;;11.00;7.18;;;13.00;60.40;;;;;;5034450;28;20085;-77
2022/03/11 12:15:01;;;;;;;10.85;6.88;;;13.00;60.60;;;;;;5044045;28;20021;-76
2022/03/11 12:17:40;;;;;;;12.00;7.20;;;13.00;60.70;;;;;;5042721;28;20079;-77
2022/03/11 12:20:46;;;;;;;11.85;7.05;;;13.00;60.80;;;;;;5044224;28;20099;-77
2022/03/11 12:23:14;;;;;;;12.43;7.25;;;13.00;60.70;;;;;;5048415;28;20056;-76
2022/03/11 12:25:58;;;;;;;12.82;7.10;;;13.00;60.40;;;;;;5037737;28;20031;-76